Etusivu
METAR-TAF:

METAR-TAF

Lentoasemat :

Tete, Mosambik

Leveyspiiri: 16-06S, Pituuspiiri: 033-38E, korkeus merenpinnasta: 160 m

Tämänhetkinen sää

Tämä raportti tehtiin 23 minuuttia sitten, kello 20.00 UTC
Tuuli 4 kn lännestä/luoteesta
Lämpötila 20°C
Kosteus 53%
Ilmanpaine 1021 hPa
Näkyvyys 10 km tai enemmän
ei pilviä alle 1500 m:ssä eikä cumulonimbus-pilviä

METAR: FQTT 222000Z 30004KT CAVOK 20/10 Q1021

Aika: 22:23 (20:23 UTC)

Sääennuste

Tämä raportti tehtiin 4 tuntia ja 23 minuuttia sitten, kello 16.00 UTC
Ennuste voimassa 22. päivästä klo 18 UTC - 23. päivään klo 18 UTC
Tuuli 7 kn etelästä/kaakosta
Näkyvyys 10 km tai enemmän
ei pilviä alle 1500 m:ssä eikä cumulonimbus-pilviä

TAF: FQTT 221600Z 2218/2318 16007KT CAVOK TX31/2313Z TN19/2302Z

Säähavainnot ja -ennusteet yli 4000 lentoasemalta (METAR- ja TAF-raportit).

Käytössä olevat sääasemat on merkitty karttaan keltaisilla ja punaisilla pisteillä.

Aseta hiiri pisteen päälle nähdäksesi sääaseman nimen.

Klikkaa sitten nähdäksesi säähavainnot ja -ennusteet.

Kartan vaihtaminen: klikkaa mustalla rastilla varustettuja vihreitä pisteitä, niin voit zoomata sisään; viivalla varustettua vihreää pistettä, niin voit zoomata ulos tai vihreitä nuolia, niin pääset viereisille kartoille.


METAR-TAF: